Decoded Metar for CYER ( in ) (IATA:) | Meteo·Mobile Aviation Weather
aviador You're here:

CYER Decoded Metar

in
Report Time2019-10-22 14:00:00
UTC Time2019-10-22 14:56:00
Flight Rules ifr IFR
Wind050° at 11 kt
W.Decomp.*RWY 33: 1.9 kt HW 10.8 kt RCW
Visibility9999 m
Phenomena:N/A
Clouds:Broken 006 Hf
Broken 022 Hf
Overcast 150 Hf
Ceiling600 ft
Temp05°C
Dew Point05°C (100% RH)
AAT-0.1°C
QNH1009 hPa
Raw Report
METAR CYER 221400Z AUTO 05011KT 9SM BKN006 BKN022 OVC150 05/05 A2981 RMK SLP097=

Extra information for CYER:More info

Social comments